createdAt,value
2019-06-04T00:02:32.344Z,13.60
2019-06-04T00:05:02.879Z,13.60
2019-06-04T00:07:32.585Z,13.60
2019-06-04T00:10:02.297Z,13.50
2019-06-04T00:12:32.047Z,13.50
2019-06-04T00:15:02.471Z,13.40
2019-06-04T00:17:32.564Z,13.40
2019-06-04T00:20:03.397Z,13.40
2019-06-04T00:22:33.463Z,13.30
2019-06-04T00:25:03.250Z,13.30
2019-06-04T00:27:32.940Z,13.40
2019-06-04T00:30:02.741Z,13.30
2019-06-04T00:32:32.469Z,13.30
2019-06-04T00:35:02.424Z,13.30
2019-06-04T00:37:32.309Z,13.30
2019-06-04T00:40:02.800Z,13.30
2019-06-04T00:42:32.766Z,13.20
2019-06-04T00:45:03.174Z,13.20
2019-06-04T00:47:33.299Z,13.20
2019-06-04T00:50:03.556Z,13.20
2019-06-04T00:52:33.301Z,13.10
2019-06-04T00:55:21.943Z,13.10
2019-06-04T00:57:51.723Z,13.10
2019-06-04T01:00:21.457Z,13.10
2019-06-04T01:02:51.203Z,13.10
2019-06-04T01:05:21.074Z,13.10
2019-06-04T01:07:50.831Z,13.10
2019-06-04T01:10:20.650Z,13.10
2019-06-04T01:12:50.411Z,13.10
2019-06-04T01:15:25.486Z,13.10
2019-06-04T01:17:51.642Z,13.10
2019-06-04T01:20:41.581Z,13.20
2019-06-04T01:23:11.630Z,13.20
2019-06-04T01:25:41.428Z,13.10
2019-06-04T01:28:11.164Z,13.10
2019-06-04T01:30:41.013Z,13.10
2019-06-04T01:33:10.829Z,13.10
2019-06-04T01:35:40.670Z,13.10
2019-06-04T01:38:10.835Z,13.00
2019-06-04T01:40:40.740Z,13.00
2019-06-04T01:43:11.494Z,13.00
2019-06-04T01:45:41.392Z,13.00
2019-06-04T01:48:12.775Z,13.00
2019-06-04T01:50:42.916Z,13.00
2019-06-04T01:53:12.809Z,13.00
2019-06-04T01:55:42.564Z,12.90
2019-06-04T01:58:14.315Z,12.90
2019-06-04T02:00:43.771Z,13.00
2019-06-04T02:03:14.007Z,13.00
2019-06-04T02:05:44.278Z,13.00
2019-06-04T02:08:15.680Z,13.00
2019-06-04T02:10:45.382Z,12.90
2019-06-04T02:13:15.063Z,12.90
2019-06-04T02:15:44.768Z,12.80
2019-06-04T02:18:14.767Z,12.80
2019-06-04T02:20:44.821Z,12.90
2019-06-04T02:23:14.593Z,12.90
2019-06-04T02:25:44.328Z,12.90
2019-06-04T02:28:15.298Z,12.90
2019-06-04T02:30:45.212Z,12.90
2019-06-04T02:33:20.621Z,12.90
2019-06-04T02:35:46.371Z,13.00
2019-06-04T02:38:17.291Z,13.00
2019-06-04T02:40:49.860Z,13.00
2019-06-04T02:43:19.787Z,13.00
2019-06-04T02:45:51.252Z,13.00
2019-06-04T02:48:25.196Z,13.10
2019-06-04T02:50:57.328Z,13.10
2019-06-04T02:53:27.252Z,13.10
2019-06-04T02:55:57.108Z,13.10
2019-06-04T02:58:27.067Z,13.20
2019-06-04T03:01:02.725Z,13.30
2019-06-04T03:03:36.353Z,13.30
2019-06-04T03:06:08.958Z,13.40
2019-06-04T03:08:40.101Z,13.50
2019-06-04T03:11:12.872Z,13.50
2019-06-04T03:13:41.900Z,13.60
2019-06-04T03:16:13.054Z,13.70
2019-06-04T03:18:42.988Z,13.80
2019-06-04T03:21:14.306Z,13.90
2019-06-04T03:23:44.188Z,14.00
2019-06-04T03:26:13.859Z,14.10
2019-06-04T03:28:43.551Z,14.20
2019-06-04T03:31:15.212Z,14.30
2019-06-04T03:33:56.941Z,14.40
2019-06-04T03:36:16.636Z,14.50
2019-06-04T03:38:46.726Z,14.60
2019-06-04T03:41:17.201Z,14.80
2019-06-04T03:43:47.188Z,14.90
2019-06-04T03:46:18.039Z,15.10
2019-06-04T03:48:47.875Z,15.20
2019-06-04T03:51:18.777Z,15.40
2019-06-04T03:53:48.611Z,15.60
2019-06-04T03:56:19.199Z,15.80
2019-06-04T03:58:49.384Z,16.10
2019-06-04T04:01:20.337Z,16.40
2019-06-04T04:04:04.054Z,16.70
2019-06-04T04:06:22.954Z,16.90
2019-06-04T04:08:53.143Z,17.10
2019-06-04T04:11:22.885Z,17.60
2019-06-04T04:13:52.669Z,19.20
2019-06-04T04:16:22.929Z,21.30
2019-06-04T04:18:52.777Z,23.30
2019-06-04T04:21:25.321Z,25.10
2019-06-04T04:23:55.386Z,26.50
2019-06-04T04:26:25.334Z,27.50
2019-06-04T04:28:55.305Z,28.50
2019-06-04T04:31:26.116Z,29.30
2019-06-04T04:33:55.936Z,29.90
2019-06-04T04:36:25.806Z,30.40
2019-06-04T04:38:55.512Z,30.90
2019-06-04T04:41:25.923Z,31.20
2019-06-04T04:43:55.916Z,31.10
2019-06-04T04:46:26.761Z,30.40
2019-06-04T04:48:56.981Z,29.20
2019-06-04T04:51:27.488Z,28.00
2019-06-04T04:53:57.640Z,26.40
2019-06-04T04:56:27.592Z,25.10
2019-06-04T04:58:57.672Z,24.10
2019-06-04T05:01:27.981Z,23.40
2019-06-04T05:03:58.223Z,23.00
2019-06-04T05:06:29.309Z,22.80
2019-06-04T05:08:59.505Z,22.90
2019-06-04T05:11:31.084Z,22.80
2019-06-04T05:14:02.816Z,22.60
2019-06-04T05:16:34.033Z,22.40
2019-06-04T05:19:06.268Z,22.30
2019-06-04T05:21:36.804Z,22.20
2019-06-04T05:24:06.579Z,22.20
2019-06-04T05:26:36.391Z,22.00
2019-06-04T05:29:06.072Z,22.00
2019-06-04T05:31:35.918Z,22.00
2019-06-04T05:34:05.914Z,21.90
2019-06-04T05:36:37.713Z,21.90
2019-06-04T05:39:10.609Z,21.90
2019-06-04T05:41:40.427Z,21.90
2019-06-04T05:44:10.227Z,22.00
2019-06-04T05:46:39.931Z,22.00
2019-06-04T05:49:09.673Z,22.10
2019-06-04T05:51:44.084Z,22.20
2019-06-04T05:54:13.984Z,22.30
2019-06-04T05:56:43.734Z,22.30
2019-06-04T05:59:13.433Z,22.40
2019-06-04T06:01:43.227Z,22.40
2019-06-04T06:04:12.988Z,22.50
2019-06-04T06:06:42.756Z,22.50
2019-06-04T06:09:12.525Z,22.60
2019-06-04T06:11:42.241Z,22.70
2019-06-04T06:14:15.057Z,22.70
2019-06-04T06:16:44.836Z,22.80
2019-06-04T06:19:14.574Z,22.80
2019-06-04T06:21:44.321Z,23.00
2019-06-04T06:24:14.087Z,23.00
2019-06-04T06:26:43.816Z,23.10
2019-06-04T06:29:13.570Z,23.20
2019-06-04T06:31:43.302Z,23.30
2019-06-04T06:34:13.013Z,23.30
2019-06-04T06:36:42.735Z,23.40
2019-06-04T06:39:12.479Z,23.50
2019-06-04T06:41:42.213Z,23.60
2019-06-04T06:44:11.897Z,23.70
2019-06-04T06:46:42.280Z,23.70
2019-06-04T06:49:11.978Z,23.80
2019-06-04T06:51:41.702Z,23.80
2019-06-04T06:54:11.431Z,23.90
2019-06-04T06:56:41.218Z,24.00
2019-06-04T06:59:10.920Z,24.10
2019-06-04T07:01:40.763Z,24.20
2019-06-04T07:04:10.664Z,24.30
2019-06-04T07:06:42.279Z,24.40
2019-06-04T07:09:12.019Z,24.50
2019-06-04T07:11:44.524Z,24.50
2019-06-04T07:14:14.251Z,24.70
2019-06-04T07:16:43.975Z,24.70
2019-06-04T07:19:13.682Z,24.80
2019-06-04T07:21:43.512Z,24.80
2019-06-04T07:24:13.236Z,25.00
2019-06-04T07:26:42.970Z,25.10
2019-06-04T07:29:12.753Z,25.20
2019-06-04T07:31:42.485Z,25.20
2019-06-04T07:34:12.239Z,25.20
2019-06-04T07:36:41.978Z,25.30
2019-06-04T07:39:11.701Z,25.30
2019-06-04T07:41:42.885Z,25.40
2019-06-04T07:44:27.831Z,25.50
2019-06-04T07:46:57.629Z,25.50
2019-06-04T07:49:27.351Z,25.60
2019-06-04T07:51:57.104Z,25.70
2019-06-04T07:54:26.919Z,25.70
2019-06-04T07:56:56.625Z,25.70
2019-06-04T07:59:26.402Z,25.80
2019-06-04T08:02:07.015Z,26.00
2019-06-04T08:04:27.671Z,26.10
2019-06-04T08:06:58.921Z,26.20
2019-06-04T08:09:28.903Z,26.30
2019-06-04T08:11:58.650Z,26.30
2019-06-04T08:14:28.370Z,26.30
2019-06-04T08:16:58.172Z,26.30
2019-06-04T08:19:27.881Z,26.30
2019-06-04T08:21:58.519Z,26.40
2019-06-04T08:24:28.556Z,26.50
2019-06-04T08:26:58.268Z,26.60
2019-06-04T08:29:27.925Z,26.70
2019-06-04T08:31:57.740Z,26.80
2019-06-04T08:34:27.469Z,26.80
2019-06-04T08:37:07.653Z,26.80
2019-06-04T08:39:28.547Z,26.90
2019-06-04T08:41:58.307Z,26.90
2019-06-04T08:44:28.063Z,27.00
2019-06-04T08:46:57.935Z,27.00
2019-06-04T08:49:27.717Z,26.90
2019-06-04T08:51:57.425Z,27.00
2019-06-04T08:54:27.184Z,27.10
2019-06-04T08:56:58.172Z,27.10
2019-06-04T08:59:30.930Z,27.10
2019-06-04T09:02:01.486Z,27.20
2019-06-04T09:04:33.125Z,27.30
2019-06-04T09:07:04.037Z,27.40
2019-06-04T09:09:36.328Z,27.40
2019-06-04T09:12:06.076Z,27.50
2019-06-04T09:14:37.968Z,27.60
2019-06-04T09:17:08.179Z,27.70
2019-06-04T09:19:39.140Z,27.60
2019-06-04T09:22:08.985Z,27.60
2019-06-04T09:24:44.435Z,27.50
2019-06-04T09:27:10.207Z,27.60
2019-06-04T09:29:41.120Z,27.70
2019-06-04T09:32:11.333Z,27.90
2019-06-04T09:34:43.618Z,28.00
2019-06-04T09:37:13.399Z,28.10
2019-06-04T09:39:46.783Z,28.20
2019-06-04T09:42:14.476Z,28.40
2019-06-04T09:44:44.393Z,28.50
2019-06-04T09:47:14.194Z,28.60
2019-06-04T09:49:47.021Z,28.80
2019-06-04T09:52:15.394Z,28.80
2019-06-04T09:54:46.729Z,28.70
2019-06-04T09:57:16.575Z,28.60
2019-06-04T09:59:46.768Z,28.60
2019-06-04T10:02:17.748Z,28.60
2019-06-04T10:04:49.572Z,28.70
2019-06-04T10:07:22.798Z,28.80
2019-06-04T10:09:52.561Z,28.90
2019-06-04T10:12:22.359Z,29.00
2019-06-04T10:14:52.994Z,29.10
2019-06-04T10:17:22.962Z,29.00
2019-06-04T10:19:53.818Z,29.10
2019-06-04T10:22:23.929Z,29.20
2019-06-04T10:24:57.393Z,29.30
2019-06-04T10:27:24.974Z,29.30
2019-06-04T10:29:54.776Z,29.20
2019-06-04T10:32:24.500Z,29.10
2019-06-04T10:34:58.263Z,29.20
2019-06-04T10:37:25.693Z,29.20
2019-06-04T10:39:55.968Z,29.30
2019-06-04T10:42:26.070Z,29.30
2019-06-04T10:45:05.366Z,29.20
2019-06-04T10:47:27.212Z,29.10
2019-06-04T10:49:56.939Z,28.90
2019-06-04T10:52:26.637Z,28.80
2019-06-04T10:54:56.367Z,28.70
2019-06-04T10:57:26.090Z,28.70
2019-06-04T10:59:57.454Z,28.80
2019-06-04T11:02:27.277Z,29.00
2019-06-04T11:04:57.128Z,29.10
2019-06-04T11:07:26.898Z,29.20
2019-06-04T11:09:56.567Z,29.10
2019-06-04T11:12:26.272Z,29.00
2019-06-04T11:14:56.189Z,29.10
2019-06-04T11:17:25.939Z,29.30
2019-06-04T11:19:55.666Z,29.60
2019-06-04T11:22:25.407Z,29.70
2019-06-04T11:24:55.115Z,29.70
2019-06-04T11:27:24.835Z,29.70
2019-06-04T11:29:55.244Z,29.60
2019-06-04T11:32:25.219Z,29.50
2019-06-04T11:34:55.757Z,29.50
2019-06-04T11:37:25.715Z,29.70
2019-06-04T11:39:56.413Z,29.70
2019-06-04T11:42:26.242Z,29.60
2019-06-04T11:45:09.166Z,29.50
2019-06-04T11:47:27.857Z,29.60
2019-06-04T11:49:59.359Z,29.80
2019-06-04T11:52:29.576Z,30.00
2019-06-04T11:55:00.022Z,30.00
2019-06-04T11:57:30.953Z,30.00
2019-06-04T12:00:03.030Z,30.10
2019-06-04T12:02:32.993Z,30.20
2019-06-04T12:05:05.670Z,30.40
2019-06-04T12:07:35.040Z,30.60
2019-06-04T12:10:05.308Z,30.70
2019-06-04T12:12:44.262Z,30.90
2019-06-04T12:15:07.394Z,31.10
2019-06-04T12:17:37.227Z,31.10
2019-06-04T12:20:07.175Z,31.10
2019-06-04T12:23:23.339Z,31.20
2019-06-04T12:25:08.441Z,31.30
2019-06-04T12:27:38.139Z,31.40
2019-06-04T12:30:08.904Z,31.20
2019-06-04T12:32:38.613Z,31.00
2019-06-04T12:35:11.154Z,30.90
2019-06-04T12:37:39.939Z,30.90
2019-06-04T12:40:09.857Z,30.90
2019-06-04T12:42:39.660Z,30.80
2019-06-04T12:45:10.342Z,30.70
2019-06-04T12:47:40.090Z,30.60
2019-06-04T12:50:09.900Z,30.60
2019-06-04T12:52:39.812Z,30.50
2019-06-04T12:55:10.140Z,30.60
2019-06-04T12:57:40.997Z,30.60
2019-06-04T13:00:11.445Z,30.60
2019-06-04T13:02:43.435Z,30.70
2019-06-04T13:05:14.144Z,30.70
2019-06-04T13:07:45.530Z,30.60
2019-06-04T13:10:26.748Z,30.50
2019-06-04T13:12:47.896Z,30.50
2019-06-04T13:15:18.615Z,30.40
2019-06-04T13:17:48.421Z,30.30
2019-06-04T13:20:29.917Z,30.30
2019-06-04T13:22:56.587Z,30.30
2019-06-04T13:25:24.414Z,30.30
2019-06-04T13:27:55.805Z,30.30
2019-06-04T13:30:45.182Z,30.20
2019-06-04T13:33:15.077Z,30.10
2019-06-04T13:35:44.873Z,30.20
2019-06-04T13:38:14.717Z,30.10
2019-06-04T13:40:44.544Z,30.10
2019-06-04T13:43:14.332Z,30.20
2019-06-04T13:45:44.131Z,30.30
2019-06-04T13:48:13.802Z,30.30
2019-06-04T13:50:43.708Z,30.20
2019-06-04T13:53:22.805Z,30.20
2019-06-04T13:55:48.049Z,30.10
2019-06-04T13:58:19.961Z,30.10
2019-06-04T14:00:49.341Z,30.20
2019-06-04T14:03:19.163Z,30.30
2019-06-04T14:05:48.942Z,30.40
2019-06-04T14:08:18.627Z,30.60
2019-06-04T14:10:51.038Z,30.90
2019-06-04T14:13:20.005Z,31.00
2019-06-04T14:15:49.792Z,31.10
2019-06-04T14:18:19.535Z,31.00
2019-06-04T14:20:49.279Z,31.00
2019-06-04T14:23:21.903Z,31.00
2019-06-04T14:26:26.248Z,30.90
2019-06-04T14:28:56.129Z,31.00
2019-06-04T14:31:25.865Z,31.10
2019-06-04T14:33:56.164Z,31.40
2019-06-04T14:36:25.864Z,31.60
2019-06-04T14:38:57.767Z,31.70
2019-06-04T14:41:27.571Z,31.60
2019-06-04T14:43:57.466Z,31.60
2019-06-04T14:46:27.175Z,31.70
2019-06-04T14:48:56.849Z,31.80
2019-06-04T14:51:26.593Z,31.90
2019-06-04T14:53:56.431Z,31.90
2019-06-04T14:56:26.149Z,32.00
2019-06-04T14:58:55.921Z,32.00
2019-06-04T15:01:25.671Z,32.20
2019-06-04T15:03:55.426Z,32.30
2019-06-04T15:06:25.132Z,32.50
2019-06-04T15:08:54.835Z,32.70
2019-06-04T15:11:40.041Z,32.70
2019-06-04T15:13:57.011Z,32.70
2019-06-04T15:16:26.760Z,32.70
2019-06-04T15:18:56.535Z,32.60
2019-06-04T15:21:26.311Z,32.70
2019-06-04T15:23:59.282Z,32.90
2019-06-04T15:26:28.980Z,33.00
2019-06-04T15:28:58.714Z,33.00
2019-06-04T15:31:29.239Z,32.50
2019-06-04T15:33:59.082Z,32.10
2019-06-04T15:36:29.153Z,31.70
2019-06-04T15:38:58.881Z,31.50
2019-06-04T15:41:44.936Z,31.10
2019-06-04T15:44:00.647Z,30.90
2019-06-04T15:46:30.390Z,31.20
2019-06-04T15:49:00.700Z,31.60
2019-06-04T15:51:30.655Z,32.00
2019-06-04T15:54:00.442Z,32.40
2019-06-04T15:56:30.231Z,32.60
2019-06-04T15:59:02.423Z,32.40
2019-06-04T16:01:32.131Z,31.90
2019-06-04T16:04:01.927Z,31.50
2019-06-04T16:06:31.717Z,30.90
2019-06-04T16:09:01.508Z,30.50
2019-06-04T16:11:31.327Z,30.20
2019-06-04T16:14:01.075Z,29.90
2019-06-04T16:16:30.813Z,29.60
2019-06-04T16:19:01.668Z,29.40
2019-06-04T16:21:34.816Z,29.10
2019-06-04T16:24:03.402Z,29.00
2019-06-04T16:26:33.199Z,28.70
2019-06-04T16:29:02.895Z,28.60
2019-06-04T16:31:32.600Z,28.50
2019-06-04T16:34:02.320Z,28.40
2019-06-04T16:36:35.028Z,28.30
2019-06-04T16:39:06.249Z,28.40
2019-06-04T16:41:35.875Z,28.30
2019-06-04T16:44:09.224Z,28.20
2019-06-04T16:46:45.538Z,28.10
2019-06-04T16:49:15.367Z,28.10
2019-06-04T16:51:45.137Z,28.10
2019-06-04T16:54:15.013Z,28.00
2019-06-04T16:56:44.796Z,27.90
2019-06-04T16:59:14.764Z,27.90
2019-06-04T17:01:44.527Z,27.70
2019-06-04T17:04:14.259Z,27.60
2019-06-04T17:06:43.973Z,27.60
2019-06-04T17:09:13.750Z,27.50
2019-06-04T17:11:43.752Z,27.40
2019-06-04T17:14:14.364Z,27.40
2019-06-04T17:16:45.311Z,27.40
2019-06-04T17:19:15.024Z,27.40
2019-06-04T17:21:44.770Z,27.30
2019-06-04T17:24:14.580Z,27.30
2019-06-04T17:26:44.792Z,27.20
2019-06-04T17:29:14.560Z,27.20
2019-06-04T17:31:44.295Z,27.00
2019-06-04T17:34:14.002Z,27.00
2019-06-04T17:36:43.761Z,26.90
2019-06-04T17:39:13.587Z,26.70
2019-06-04T17:41:43.269Z,26.60
2019-06-04T17:44:13.007Z,26.50
2019-06-04T17:46:42.742Z,26.50
2019-06-04T17:49:12.602Z,26.50
2019-06-04T17:51:42.458Z,26.40
2019-06-04T17:54:12.145Z,26.30
2019-06-04T17:56:41.921Z,26.20
2019-06-04T17:59:11.629Z,26.10
2019-06-04T18:01:41.330Z,26.10
2019-06-04T18:04:11.057Z,26.00
2019-06-04T18:06:40.785Z,25.90
2019-06-04T18:09:10.544Z,25.80
2019-06-04T18:11:40.258Z,25.60
2019-06-04T18:14:10.007Z,25.50
2019-06-04T18:16:39.990Z,25.40
2019-06-04T18:19:10.529Z,25.30
2019-06-04T18:21:40.472Z,25.20
2019-06-04T18:24:10.293Z,25.10
2019-06-04T18:26:40.610Z,25.00
2019-06-04T18:29:10.737Z,24.90
2019-06-04T18:31:40.445Z,24.80
2019-06-04T18:34:10.226Z,24.70
2019-06-04T18:36:40.592Z,24.50
2019-06-04T18:39:10.407Z,24.30
2019-06-04T18:41:40.193Z,24.10
2019-06-04T18:44:10.093Z,24.00
2019-06-04T18:46:39.801Z,23.80
2019-06-04T18:49:10.112Z,23.60
2019-06-04T18:51:39.983Z,23.50
2019-06-04T18:54:09.887Z,23.40
2019-06-04T18:56:41.352Z,23.30
2019-06-04T18:59:11.089Z,23.10
2019-06-04T19:01:40.971Z,23.00
2019-06-04T19:04:11.088Z,22.90
2019-06-04T19:06:41.279Z,22.70
2019-06-04T19:09:11.638Z,22.60
2019-06-04T19:11:41.726Z,22.50
2019-06-04T19:14:11.929Z,22.40
2019-06-04T19:16:41.767Z,22.30
2019-06-04T19:19:27.821Z,22.20
2019-06-04T19:21:47.062Z,22.10
2019-06-04T19:24:14.344Z,21.90
2019-06-04T19:26:45.263Z,21.80
2019-06-04T19:29:15.036Z,21.70
2019-06-04T19:31:47.221Z,21.70
2019-06-04T19:34:17.006Z,21.50
2019-06-04T19:36:46.716Z,21.40
2019-06-04T19:39:18.701Z,21.40
2019-06-04T19:41:48.423Z,21.30
2019-06-04T19:44:21.726Z,21.20
2019-06-04T19:46:52.177Z,21.20
2019-06-04T19:49:21.952Z,21.10
2019-06-04T19:51:51.696Z,21.00
2019-06-04T19:54:23.134Z,21.00
2019-06-04T19:56:52.928Z,20.90
2019-06-04T19:59:22.676Z,20.90
2019-06-04T20:01:52.481Z,20.90
2019-06-04T20:04:22.184Z,20.80
2019-06-04T20:06:51.929Z,20.70
2019-06-04T20:09:21.918Z,20.60
2019-06-04T20:11:51.748Z,20.50
2019-06-04T20:14:40.287Z,20.50
2019-06-04T20:16:53.060Z,20.40
2019-06-04T20:19:22.793Z,20.30
2019-06-04T20:21:52.548Z,20.30
2019-06-04T20:24:22.413Z,20.20
2019-06-04T20:26:53.920Z,20.20
2019-06-04T20:29:23.755Z,20.10
2019-06-04T20:31:53.554Z,20.00
2019-06-04T20:34:23.528Z,19.90
2019-06-04T20:36:53.254Z,19.90
2019-06-04T20:39:23.014Z,19.90
2019-06-04T20:41:52.915Z,19.80
2019-06-04T20:44:23.882Z,19.80
2019-06-04T20:46:53.729Z,19.70
2019-06-04T20:49:27.990Z,19.60
2019-06-04T20:51:56.051Z,19.60
2019-06-04T20:54:25.968Z,19.60
2019-06-04T20:57:15.855Z,19.50
2019-06-04T20:59:27.445Z,19.40
2019-06-04T21:01:57.276Z,19.40
2019-06-04T21:04:29.827Z,19.30
2019-06-04T21:06:59.864Z,19.30
2019-06-04T21:09:29.691Z,19.20
2019-06-04T21:11:59.465Z,19.10
2019-06-04T21:14:29.219Z,19.10
2019-06-04T21:16:58.976Z,19.00
2019-06-04T21:19:28.825Z,19.00
2019-06-04T21:21:58.569Z,19.00
2019-06-04T21:24:28.292Z,18.90
2019-06-04T21:26:58.064Z,18.90
2019-06-04T21:29:27.791Z,18.90
2019-06-04T21:31:57.504Z,18.90
2019-06-04T21:34:27.279Z,18.90
2019-06-04T21:36:57.029Z,18.80
2019-06-04T21:39:26.854Z,18.80
2019-06-04T21:41:56.607Z,18.70
2019-06-04T21:44:26.356Z,18.70
2019-06-04T21:47:01.545Z,18.70
2019-06-04T21:49:27.448Z,18.70
2019-06-04T21:51:57.138Z,18.70
2019-06-04T21:54:28.606Z,18.70
2019-06-04T21:56:58.654Z,18.60
2019-06-04T21:59:28.403Z,18.60
2019-06-04T22:01:58.247Z,18.60
2019-06-04T22:04:29.223Z,18.70
2019-06-04T22:07:00.909Z,18.70
2019-06-04T22:09:33.239Z,18.70
2019-06-04T22:12:02.930Z,18.80
2019-06-04T22:14:32.740Z,18.80
2019-06-04T22:17:02.425Z,18.90
2019-06-04T22:19:32.177Z,18.90
2019-06-04T22:22:01.940Z,19.00
2019-06-04T22:24:31.640Z,19.00
2019-06-04T22:27:01.374Z,19.00
2019-06-04T22:29:31.127Z,19.10
2019-06-04T22:32:01.137Z,19.00
2019-06-04T22:34:31.353Z,18.90
2019-06-04T22:37:01.090Z,19.00
2019-06-04T22:39:30.780Z,18.90
2019-06-04T22:42:00.713Z,18.80
2019-06-04T22:44:30.406Z,18.80
2019-06-04T22:47:00.269Z,18.70
2019-06-04T22:49:30.437Z,18.60
2019-06-04T22:52:01.685Z,18.60
2019-06-04T22:54:31.546Z,18.70
2019-06-04T22:57:01.385Z,18.70
2019-06-04T22:59:31.095Z,18.80
2019-06-04T23:02:02.612Z,18.90
2019-06-04T23:04:32.164Z,18.90
2019-06-04T23:07:02.542Z,18.90
2019-06-04T23:09:32.767Z,18.80
2019-06-04T23:12:03.683Z,18.90
2019-06-04T23:14:33.667Z,18.90
2019-06-04T23:17:04.505Z,18.80
2019-06-04T23:19:34.599Z,18.80
2019-06-04T23:22:04.841Z,18.70
2019-06-04T23:24:34.541Z,18.60
2019-06-04T23:27:04.429Z,18.60
2019-06-04T23:29:34.200Z,18.50
2019-06-04T23:32:08.696Z,18.50
2019-06-04T23:34:35.325Z,18.50
2019-06-04T23:37:05.271Z,18.40
2019-06-04T23:39:35.079Z,18.50
2019-06-04T23:42:06.015Z,18.50
2019-06-04T23:44:35.907Z,18.60
2019-06-04T23:47:08.801Z,18.60
2019-06-04T23:49:37.070Z,18.50
2019-06-04T23:52:06.770Z,18.50
2019-06-04T23:54:36.486Z,18.40
2019-06-04T23:57:06.249Z,18.30
2019-06-04T23:59:35.963Z,18.30
